sensor_id;sensor_type;location;lat;lon;timestamp;temperature;humidity
2497;DHT22;1259;48.306;14.374;2023-06-14T00:01:06;13.50;77.50
2497;DHT22;1259;48.306;14.374;2023-06-14T00:03:34;13.40;78.10
2497;DHT22;1259;48.306;14.374;2023-06-14T00:06:00;13.40;78.00
2497;DHT22;1259;48.306;14.374;2023-06-14T00:08:27;13.40;78.30
2497;DHT22;1259;48.306;14.374;2023-06-14T00:10:54;13.40;78.10
2497;DHT22;1259;48.306;14.374;2023-06-14T00:13:20;13.40;78.20
2497;DHT22;1259;48.306;14.374;2023-06-14T00:15:47;13.40;78.30
2497;DHT22;1259;48.306;14.374;2023-06-14T00:18:14;13.40;78.40
2497;DHT22;1259;48.306;14.374;2023-06-14T00:20:43;13.40;78.80
2497;DHT22;1259;48.306;14.374;2023-06-14T00:23:09;13.40;79.20
2497;DHT22;1259;48.306;14.374;2023-06-14T00:25:36;13.30;79.50
2497;DHT22;1259;48.306;14.374;2023-06-14T00:28:03;13.40;79.50
2497;DHT22;1259;48.306;14.374;2023-06-14T00:30:30;13.40;79.50
2497;DHT22;1259;48.306;14.374;2023-06-14T00:32:56;13.40;79.60
2497;DHT22;1259;48.306;14.374;2023-06-14T00:35:23;13.50;79.70
2497;DHT22;1259;48.306;14.374;2023-06-14T00:37:52;13.50;80.10
2497;DHT22;1259;48.306;14.374;2023-06-14T00:40:20;13.50;80.50
2497;DHT22;1259;48.306;14.374;2023-06-14T00:42:46;13.50;80.30
2497;DHT22;1259;48.306;14.374;2023-06-14T00:45:13;13.40;80.50
2497;DHT22;1259;48.306;14.374;2023-06-14T00:47:40;13.40;80.70
2497;DHT22;1259;48.306;14.374;2023-06-14T00:50:07;13.30;80.70
2497;DHT22;1259;48.306;14.374;2023-06-14T00:52:35;13.30;80.70
2497;DHT22;1259;48.306;14.374;2023-06-14T00:55:04;13.30;80.80
2497;DHT22;1259;48.306;14.374;2023-06-14T00:57:31;13.30;81.70
2497;DHT22;1259;48.306;14.374;2023-06-14T00:59:57;13.20;81.60
2497;DHT22;1259;48.306;14.374;2023-06-14T01:02:24;13.20;81.60
2497;DHT22;1259;48.306;14.374;2023-06-14T01:04:51;13.30;82.00
2497;DHT22;1259;48.306;14.374;2023-06-14T01:07:20;13.20;82.60
2497;DHT22;1259;48.306;14.374;2023-06-14T01:09:53;13.10;82.80
2497;DHT22;1259;48.306;14.374;2023-06-14T01:12:27;13.10;83.00
2497;DHT22;1259;48.306;14.374;2023-06-14T01:14:56;13.10;83.50
2497;DHT22;1259;48.306;14.374;2023-06-14T01:17:23;13.00;84.20
2497;DHT22;1259;48.306;14.374;2023-06-14T01:19:52;12.80;85.30
2497;DHT22;1259;48.306;14.374;2023-06-14T01:22:23;12.80;85.40
2497;DHT22;1259;48.306;14.374;2023-06-14T01:24:52;12.80;85.60
2497;DHT22;1259;48.306;14.374;2023-06-14T01:27:20;12.80;86.00
2497;DHT22;1259;48.306;14.374;2023-06-14T01:29:49;12.70;86.20
2497;DHT22;1259;48.306;14.374;2023-06-14T01:32:16;12.70;86.40
2497;DHT22;1259;48.306;14.374;2023-06-14T01:34:44;12.70;86.60
2497;DHT22;1259;48.306;14.374;2023-06-14T01:37:11;12.90;86.20
2497;DHT22;1259;48.306;14.374;2023-06-14T01:39:38;12.90;86.10
2497;DHT22;1259;48.306;14.374;2023-06-14T01:42:07;12.90;86.00
2497;DHT22;1259;48.306;14.374;2023-06-14T01:44:33;13.00;86.20
2497;DHT22;1259;48.306;14.374;2023-06-14T01:47:00;13.00;86.10
2497;DHT22;1259;48.306;14.374;2023-06-14T01:49:27;13.00;86.10
2497;DHT22;1259;48.306;14.374;2023-06-14T01:51:54;13.00;86.30
2497;DHT22;1259;48.306;14.374;2023-06-14T01:54:20;13.00;86.70
2497;DHT22;1259;48.306;14.374;2023-06-14T01:56:48;13.00;86.70
2497;DHT22;1259;48.306;14.374;2023-06-14T01:59:16;12.90;87.20
2497;DHT22;1259;48.306;14.374;2023-06-14T02:01:42;12.90;87.70
2497;DHT22;1259;48.306;14.374;2023-06-14T02:04:09;12.80;88.00
2497;DHT22;1259;48.306;14.374;2023-06-14T02:06:36;12.80;88.50
2497;DHT22;1259;48.306;14.374;2023-06-14T02:09:03;12.70;89.00
2497;DHT22;1259;48.306;14.374;2023-06-14T02:11:30;12.70;89.70
2497;DHT22;1259;48.306;14.374;2023-06-14T02:13:56;12.70;89.90
2497;DHT22;1259;48.306;14.374;2023-06-14T02:16:26;12.70;89.90
2497;DHT22;1259;48.306;14.374;2023-06-14T02:18:54;12.70;89.90
2497;DHT22;1259;48.306;14.374;2023-06-14T02:21:22;12.80;90.00
2497;DHT22;1259;48.306;14.374;2023-06-14T02:23:49;12.80;90.10
2497;DHT22;1259;48.306;14.374;2023-06-14T02:26:15;12.70;90.30
2497;DHT22;1259;48.306;14.374;2023-06-14T02:28:42;12.70;90.40
2497;DHT22;1259;48.306;14.374;2023-06-14T02:31:09;12.60;90.70
2497;DHT22;1259;48.306;14.374;2023-06-14T02:33:37;12.60;91.00
2497;DHT22;1259;48.306;14.374;2023-06-14T02:36:04;12.60;91.20
2497;DHT22;1259;48.306;14.374;2023-06-14T02:38:30;12.60;91.20
2497;DHT22;1259;48.306;14.374;2023-06-14T02:40:57;12.60;91.70
2497;DHT22;1259;48.306;14.374;2023-06-14T02:43:24;12.70;91.60
2497;DHT22;1259;48.306;14.374;2023-06-14T02:45:51;12.60;91.70
2497;DHT22;1259;48.306;14.374;2023-06-14T02:48:18;12.70;91.90
2497;DHT22;1259;48.306;14.374;2023-06-14T02:50:46;12.60;92.00
2497;DHT22;1259;48.306;14.374;2023-06-14T02:53:12;12.70;92.10
2497;DHT22;1259;48.306;14.374;2023-06-14T02:55:39;12.60;92.30
2497;DHT22;1259;48.306;14.374;2023-06-14T02:58:06;12.70;92.50
2497;DHT22;1259;48.306;14.374;2023-06-14T03:00:32;12.70;92.70
2497;DHT22;1259;48.306;14.374;2023-06-14T03:03:00;12.60;93.00
2497;DHT22;1259;48.306;14.374;2023-06-14T03:05:27;12.60;93.30
2497;DHT22;1259;48.306;14.374;2023-06-14T03:07:57;12.60;93.60
2497;DHT22;1259;48.306;14.374;2023-06-14T03:10:24;12.60;93.80
2497;DHT22;1259;48.306;14.374;2023-06-14T03:12:53;12.60;93.80
2497;DHT22;1259;48.306;14.374;2023-06-14T03:15:20;12.60;93.90
2497;DHT22;1259;48.306;14.374;2023-06-14T03:17:49;12.70;93.70
2497;DHT22;1259;48.306;14.374;2023-06-14T03:20:16;12.70;94.00
2497;DHT22;1259;48.306;14.374;2023-06-14T03:22:42;12.60;94.40
2497;DHT22;1259;48.306;14.374;2023-06-14T03:25:12;12.60;94.40
2497;DHT22;1259;48.306;14.374;2023-06-14T03:27:40;12.70;94.50
2497;DHT22;1259;48.306;14.374;2023-06-14T03:30:07;12.60;94.90
2497;DHT22;1259;48.306;14.374;2023-06-14T03:32:34;12.60;94.90
2497;DHT22;1259;48.306;14.374;2023-06-14T03:35:01;12.60;95.40
2497;DHT22;1259;48.306;14.374;2023-06-14T03:37:28;12.60;95.50
2497;DHT22;1259;48.306;14.374;2023-06-14T03:39:54;12.70;95.20
2497;DHT22;1259;48.306;14.374;2023-06-14T03:42:22;12.70;95.60
2497;DHT22;1259;48.306;14.374;2023-06-14T03:44:49;12.80;95.40
2497;DHT22;1259;48.306;14.374;2023-06-14T03:47:16;12.80;95.10
2497;DHT22;1259;48.306;14.374;2023-06-14T03:49:42;12.80;95.70
2497;DHT22;1259;48.306;14.374;2023-06-14T03:52:09;12.80;95.70
2497;DHT22;1259;48.306;14.374;2023-06-14T03:54:36;12.90;95.50
2497;DHT22;1259;48.306;14.374;2023-06-14T03:57:03;12.80;96.00
2497;DHT22;1259;48.306;14.374;2023-06-14T03:59:31;12.90;95.90
2497;DHT22;1259;48.306;14.374;2023-06-14T04:01:58;12.90;95.80
2497;DHT22;1259;48.306;14.374;2023-06-14T04:04:25;12.80;96.50
2497;DHT22;1259;48.306;14.374;2023-06-14T04:06:54;12.80;96.70
2497;DHT22;1259;48.306;14.374;2023-06-14T04:09:22;12.80;96.80
2497;DHT22;1259;48.306;14.374;2023-06-14T04:11:50;12.90;97.20
2497;DHT22;1259;48.306;14.374;2023-06-14T04:14:17;12.90;97.80
2497;DHT22;1259;48.306;14.374;2023-06-14T04:16:45;12.90;97.60
2497;DHT22;1259;48.306;14.374;2023-06-14T04:19:11;12.90;97.60
2497;DHT22;1259;48.306;14.374;2023-06-14T04:21:38;12.90;97.50
2497;DHT22;1259;48.306;14.374;2023-06-14T04:24:05;12.90;98.70
2497;DHT22;1259;48.306;14.374;2023-06-14T04:26:32;12.90;98.40
2497;DHT22;1259;48.306;14.374;2023-06-14T04:28:59;12.90;98.60
2497;DHT22;1259;48.306;14.374;2023-06-14T04:31:27;12.90;99.30
2497;DHT22;1259;48.306;14.374;2023-06-14T04:33:55;13.00;99.40
2497;DHT22;1259;48.306;14.374;2023-06-14T04:36:22;13.00;99.90
2497;DHT22;1259;48.306;14.374;2023-06-14T04:38:50;12.90;99.90
2497;DHT22;1259;48.306;14.374;2023-06-14T04:41:20;12.90;99.90
2497;DHT22;1259;48.306;14.374;2023-06-14T04:43:48;13.00;99.90
2497;DHT22;1259;48.306;14.374;2023-06-14T04:46:15;13.00;99.90
2497;DHT22;1259;48.306;14.374;2023-06-14T04:48:42;13.10;99.90
2497;DHT22;1259;48.306;14.374;2023-06-14T04:51:10;13.00;99.90
2497;DHT22;1259;48.306;14.374;2023-06-14T04:53:38;13.10;99.90
2497;DHT22;1259;48.306;14.374;2023-06-14T04:56:05;13.20;99.90
2497;DHT22;1259;48.306;14.374;2023-06-14T04:58:32;13.30;99.90
2497;DHT22;1259;48.306;14.374;2023-06-14T05:00:59;13.40;99.90
2497;DHT22;1259;48.306;14.374;2023-06-14T05:03:27;13.40;99.90
2497;DHT22;1259;48.306;14.374;2023-06-14T05:05:55;13.50;99.90
2497;DHT22;1259;48.306;14.374;2023-06-14T05:08:23;13.40;99.90
2497;DHT22;1259;48.306;14.374;2023-06-14T05:10:51;13.40;99.90
2497;DHT22;1259;48.306;14.374;2023-06-14T05:13:18;13.50;99.90
2497;DHT22;1259;48.306;14.374;2023-06-14T05:15:44;13.50;99.90
2497;DHT22;1259;48.306;14.374;2023-06-14T05:18:11;13.50;99.90
2497;DHT22;1259;48.306;14.374;2023-06-14T05:20:38;13.60;99.90
2497;DHT22;1259;48.306;14.374;2023-06-14T05:23:06;13.70;99.90
2497;DHT22;1259;48.306;14.374;2023-06-14T05:25:35;14.00;99.90
2497;DHT22;1259;48.306;14.374;2023-06-14T05:28:01;13.90;99.90
2497;DHT22;1259;48.306;14.374;2023-06-14T05:30:28;13.90;99.90
2497;DHT22;1259;48.306;14.374;2023-06-14T05:32:56;14.00;99.90
2497;DHT22;1259;48.306;14.374;2023-06-14T05:35:22;14.00;99.90
2497;DHT22;1259;48.306;14.374;2023-06-14T05:37:51;14.00;99.90
2497;DHT22;1259;48.306;14.374;2023-06-14T05:40:19;14.50;99.90
2497;DHT22;1259;48.306;14.374;2023-06-14T05:42:47;14.70;99.90
2497;DHT22;1259;48.306;14.374;2023-06-14T05:45:13;14.60;99.90
2497;DHT22;1259;48.306;14.374;2023-06-14T05:47:41;14.60;99.90
2497;DHT22;1259;48.306;14.374;2023-06-14T05:50:08;14.80;99.90
2497;DHT22;1259;48.306;14.374;2023-06-14T05:52:35;14.90;99.90
2497;DHT22;1259;48.306;14.374;2023-06-14T05:55:02;15.30;99.90
2497;DHT22;1259;48.306;14.374;2023-06-14T05:57:29;15.60;99.90
2497;DHT22;1259;48.306;14.374;2023-06-14T05:59:57;15.40;99.90
2497;DHT22;1259;48.306;14.374;2023-06-14T06:02:24;15.00;99.90
2497;DHT22;1259;48.306;14.374;2023-06-14T06:04:50;15.40;99.90
2497;DHT22;1259;48.306;14.374;2023-06-14T06:07:17;15.90;99.90
2497;DHT22;1259;48.306;14.374;2023-06-14T06:09:44;16.30;99.90
2497;DHT22;1259;48.306;14.374;2023-06-14T06:12:10;16.20;99.90
2497;DHT22;1259;48.306;14.374;2023-06-14T06:14:37;16.20;99.90
2497;DHT22;1259;48.306;14.374;2023-06-14T06:17:05;16.40;99.90
2497;DHT22;1259;48.306;14.374;2023-06-14T06:19:32;16.80;99.90
2497;DHT22;1259;48.306;14.374;2023-06-14T06:21:58;16.70;99.00
2497;DHT22;1259;48.306;14.374;2023-06-14T06:24:25;16.70;99.60
2497;DHT22;1259;48.306;14.374;2023-06-14T06:26:52;16.80;99.90
2497;DHT22;1259;48.306;14.374;2023-06-14T06:29:19;17.00;99.70
2497;DHT22;1259;48.306;14.374;2023-06-14T06:31:46;16.80;97.70
2497;DHT22;1259;48.306;14.374;2023-06-14T06:34:14;17.40;97.30
2497;DHT22;1259;48.306;14.374;2023-06-14T06:36:40;17.30;97.40
2497;DHT22;1259;48.306;14.374;2023-06-14T06:39:07;17.80;99.30
2497;DHT22;1259;48.306;14.374;2023-06-14T06:41:35;17.80;96.50
2497;DHT22;1259;48.306;14.374;2023-06-14T06:44:03;17.10;93.90
2497;DHT22;1259;48.306;14.374;2023-06-14T06:46:30;17.10;97.20
2497;DHT22;1259;48.306;14.374;2023-06-14T06:48:56;17.70;95.20
2497;DHT22;1259;48.306;14.374;2023-06-14T06:51:24;18.10;97.00
2497;DHT22;1259;48.306;14.374;2023-06-14T06:53:52;17.80;94.40
2497;DHT22;1259;48.306;14.374;2023-06-14T06:56:18;17.90;94.30
2497;DHT22;1259;48.306;14.374;2023-06-14T06:58:46;18.50;94.70
2497;DHT22;1259;48.306;14.374;2023-06-14T07:01:13;18.40;94.10
2497;DHT22;1259;48.306;14.374;2023-06-14T07:03:39;18.70;95.80
2497;DHT22;1259;48.306;14.374;2023-06-14T07:06:06;19.10;94.00
2497;DHT22;1259;48.306;14.374;2023-06-14T07:08:34;19.30;94.00
2497;DHT22;1259;48.306;14.374;2023-06-14T07:11:01;19.50;93.50
2497;DHT22;1259;48.306;14.374;2023-06-14T07:13:27;19.10;93.70
2497;DHT22;1259;48.306;14.374;2023-06-14T07:15:54;19.00;94.00
2497;DHT22;1259;48.306;14.374;2023-06-14T07:18:23;19.00;91.10
2497;DHT22;1259;48.306;14.374;2023-06-14T07:20:50;18.80;92.20
2497;DHT22;1259;48.306;14.374;2023-06-14T07:23:17;19.00;92.50
2497;DHT22;1259;48.306;14.374;2023-06-14T07:25:45;19.10;91.60
2497;DHT22;1259;48.306;14.374;2023-06-14T07:28:12;19.30;92.00
2497;DHT22;1259;48.306;14.374;2023-06-14T07:30:38;19.40;91.80
2497;DHT22;1259;48.306;14.374;2023-06-14T07:33:05;19.70;90.10
2497;DHT22;1259;48.306;14.374;2023-06-14T07:35:33;18.90;89.90
2497;DHT22;1259;48.306;14.374;2023-06-14T07:38:00;19.40;91.80
2497;DHT22;1259;48.306;14.374;2023-06-14T07:40:27;19.60;91.40
2497;DHT22;1259;48.306;14.374;2023-06-14T07:42:55;20.00;91.10
2497;DHT22;1259;48.306;14.374;2023-06-14T07:45:22;20.60;86.90
2497;DHT22;1259;48.306;14.374;2023-06-14T07:47:48;21.20;90.80
2497;DHT22;1259;48.306;14.374;2023-06-14T07:50:15;21.10;88.10
2497;DHT22;1259;48.306;14.374;2023-06-14T07:52:42;21.70;91.60
2497;DHT22;1259;48.306;14.374;2023-06-14T07:55:08;21.80;88.60
2497;DHT22;1259;48.306;14.374;2023-06-14T07:57:35;21.60;90.30
2497;DHT22;1259;48.306;14.374;2023-06-14T08:00:04;21.60;86.00
2497;DHT22;1259;48.306;14.374;2023-06-14T08:02:32;21.90;88.20
2497;DHT22;1259;48.306;14.374;2023-06-14T08:04:59;22.20;88.80
2497;DHT22;1259;48.306;14.374;2023-06-14T08:07:25;22.50;81.90
2497;DHT22;1259;48.306;14.374;2023-06-14T08:09:52;22.60;88.00
2497;DHT22;1259;48.306;14.374;2023-06-14T08:12:19;22.60;90.70
2497;DHT22;1259;48.306;14.374;2023-06-14T08:14:45;22.70;88.10
2497;DHT22;1259;48.306;14.374;2023-06-14T08:17:13;23.10;85.20
2497;DHT22;1259;48.306;14.374;2023-06-14T08:19:40;22.80;84.70
2497;DHT22;1259;48.306;14.374;2023-06-14T08:22:07;22.30;87.30
2497;DHT22;1259;48.306;14.374;2023-06-14T08:24:37;23.00;87.30
2497;DHT22;1259;48.306;14.374;2023-06-14T08:27:05;23.40;84.90
2497;DHT22;1259;48.306;14.374;2023-06-14T08:29:31;22.40;86.40
2497;DHT22;1259;48.306;14.374;2023-06-14T08:31:58;22.90;85.30
2497;DHT22;1259;48.306;14.374;2023-06-14T08:34:27;23.50;86.00
2497;DHT22;1259;48.306;14.374;2023-06-14T08:36:53;23.80;80.90
2497;DHT22;1259;48.306;14.374;2023-06-14T08:39:20;24.10;83.00
2497;DHT22;1259;48.306;14.374;2023-06-14T08:41:47;24.10;85.00
2497;DHT22;1259;48.306;14.374;2023-06-14T08:44:15;23.70;80.50
2497;DHT22;1259;48.306;14.374;2023-06-14T08:46:42;24.40;81.50
2497;DHT22;1259;48.306;14.374;2023-06-14T08:49:10;24.40;84.60
2497;DHT22;1259;48.306;14.374;2023-06-14T08:51:39;24.70;79.00
2497;DHT22;1259;48.306;14.374;2023-06-14T08:54:06;24.20;79.20
2497;DHT22;1259;48.306;14.374;2023-06-14T08:56:32;23.20;80.00
2497;DHT22;1259;48.306;14.374;2023-06-14T08:59:00;24.00;80.60
2497;DHT22;1259;48.306;14.374;2023-06-14T09:01:30;23.90;81.80
2497;DHT22;1259;48.306;14.374;2023-06-14T09:03:57;24.60;81.70
2497;DHT22;1259;48.306;14.374;2023-06-14T09:06:24;24.90;78.60
2497;DHT22;1259;48.306;14.374;2023-06-14T09:08:55;25.20;79.40
2497;DHT22;1259;48.306;14.374;2023-06-14T09:11:22;24.70;76.30
2497;DHT22;1259;48.306;14.374;2023-06-14T09:13:49;25.00;79.00
2497;DHT22;1259;48.306;14.374;2023-06-14T09:16:16;25.50;79.30
2497;DHT22;1259;48.306;14.374;2023-06-14T09:18:43;25.80;75.60
2497;DHT22;1259;48.306;14.374;2023-06-14T09:21:13;25.70;72.70
2497;DHT22;1259;48.306;14.374;2023-06-14T09:23:40;25.70;74.70
2497;DHT22;1259;48.306;14.374;2023-06-14T09:26:09;25.10;76.00
2497;DHT22;1259;48.306;14.374;2023-06-14T09:28:36;23.70;73.30
2497;DHT22;1259;48.306;14.374;2023-06-14T09:31:03;24.40;80.90
2497;DHT22;1259;48.306;14.374;2023-06-14T09:33:30;25.20;76.20
2497;DHT22;1259;48.306;14.374;2023-06-14T09:35:58;25.50;75.50
2497;DHT22;1259;48.306;14.374;2023-06-14T09:38:24;25.60;77.40
2497;DHT22;1259;48.306;14.374;2023-06-14T09:40:51;24.80;73.70
2497;DHT22;1259;48.306;14.374;2023-06-14T09:43:19;24.50;75.10
2497;DHT22;1259;48.306;14.374;2023-06-14T09:45:47;23.90;81.10
2497;DHT22;1259;48.306;14.374;2023-06-14T09:48:14;23.50;73.30
2497;DHT22;1259;48.306;14.374;2023-06-14T09:50:44;23.70;78.10
2497;DHT22;1259;48.306;14.374;2023-06-14T09:53:11;24.50;76.40
2497;DHT22;1259;48.306;14.374;2023-06-14T09:55:40;25.00;75.00
2497;DHT22;1259;48.306;14.374;2023-06-14T09:58:07;24.50;73.20
2497;DHT22;1259;48.306;14.374;2023-06-14T10:00:36;25.20;74.50
2497;DHT22;1259;48.306;14.374;2023-06-14T10:03:05;23.70;68.80
2497;DHT22;1259;48.306;14.374;2023-06-14T10:05:33;24.60;72.40
2497;DHT22;1259;48.306;14.374;2023-06-14T10:08:04;25.40;77.00
2497;DHT22;1259;48.306;14.374;2023-06-14T10:10:31;25.30;69.60
2497;DHT22;1259;48.306;14.374;2023-06-14T10:12:58;24.90;72.70
2497;DHT22;1259;48.306;14.374;2023-06-14T10:15:27;24.10;75.70
2497;DHT22;1259;48.306;14.374;2023-06-14T10:17:58;24.50;77.40
2497;DHT22;1259;48.306;14.374;2023-06-14T10:20:27;25.10;77.10
2497;DHT22;1259;48.306;14.374;2023-06-14T10:22:57;25.20;73.60
2497;DHT22;1259;48.306;14.374;2023-06-14T10:25:28;25.60;76.90
2497;DHT22;1259;48.306;14.374;2023-06-14T10:28:16;25.60;78.20
2497;DHT22;1259;48.306;14.374;2023-06-14T10:31:02;24.70;74.50
2497;DHT22;1259;48.306;14.374;2023-06-14T10:33:30;24.00;77.20
2497;DHT22;1259;48.306;14.374;2023-06-14T10:36:07;24.80;76.50
2497;DHT22;1259;48.306;14.374;2023-06-14T10:38:34;25.60;71.50
2497;DHT22;1259;48.306;14.374;2023-06-14T10:41:02;25.20;76.00
2497;DHT22;1259;48.306;14.374;2023-06-14T10:43:30;23.50;72.90
2497;DHT22;1259;48.306;14.374;2023-06-14T10:46:14;23.70;74.60
2497;DHT22;1259;48.306;14.374;2023-06-14T10:48:42;24.50;77.10
2497;DHT22;1259;48.306;14.374;2023-06-14T10:51:15;23.80;75.20
2497;DHT22;1259;48.306;14.374;2023-06-14T10:53:45;24.20;76.00
2497;DHT22;1259;48.306;14.374;2023-06-14T10:56:22;23.70;76.00
2497;DHT22;1259;48.306;14.374;2023-06-14T10:58:50;23.90;73.90
2497;DHT22;1259;48.306;14.374;2023-06-14T11:01:18;25.00;79.90
2497;DHT22;1259;48.306;14.374;2023-06-14T11:03:51;25.10;78.20
2497;DHT22;1259;48.306;14.374;2023-06-14T11:06:21;24.80;71.30
2497;DHT22;1259;48.306;14.374;2023-06-14T11:11:32;24.50;74.20
2497;DHT22;1259;48.306;14.374;2023-06-14T11:13:59;23.90;73.40
2497;DHT22;1259;48.306;14.374;2023-06-14T11:16:26;23.80;78.60
2497;DHT22;1259;48.306;14.374;2023-06-14T11:18:55;24.20;74.40
2497;DHT22;1259;48.306;14.374;2023-06-14T11:21:21;24.50;71.10
2497;DHT22;1259;48.306;14.374;2023-06-14T11:23:50;24.50;70.20
2497;DHT22;1259;48.306;14.374;2023-06-14T11:26:24;24.00;70.80
2497;DHT22;1259;48.306;14.374;2023-06-14T11:28:54;23.20;72.30
2497;DHT22;1259;48.306;14.374;2023-06-14T11:31:21;23.10;72.80
2497;DHT22;1259;48.306;14.374;2023-06-14T11:33:49;23.20;73.70
2497;DHT22;1259;48.306;14.374;2023-06-14T11:36:17;22.30;72.90
2497;DHT22;1259;48.306;14.374;2023-06-14T11:38:43;22.10;73.30
2497;DHT22;1259;48.306;14.374;2023-06-14T11:41:10;21.40;73.30
2497;DHT22;1259;48.306;14.374;2023-06-14T11:43:37;21.00;76.70
2497;DHT22;1259;48.306;14.374;2023-06-14T11:46:04;20.80;78.30
2497;DHT22;1259;48.306;14.374;2023-06-14T11:48:40;20.80;74.90
2497;DHT22;1259;48.306;14.374;2023-06-14T11:51:07;20.70;75.00
2497;DHT22;1259;48.306;14.374;2023-06-14T11:53:35;20.50;73.80
2497;DHT22;1259;48.306;14.374;2023-06-14T11:56:02;20.40;74.30
2497;DHT22;1259;48.306;14.374;2023-06-14T11:58:29;20.40;78.80
2497;DHT22;1259;48.306;14.374;2023-06-14T12:00:55;20.10;71.80
2497;DHT22;1259;48.306;14.374;2023-06-14T12:03:23;20.30;74.10
2497;DHT22;1259;48.306;14.374;2023-06-14T12:05:50;20.30;76.00
2497;DHT22;1259;48.306;14.374;2023-06-14T12:08:17;20.20;74.40
2497;DHT22;1259;48.306;14.374;2023-06-14T12:10:46;20.20;76.90
2497;DHT22;1259;48.306;14.374;2023-06-14T12:13:13;20.20;77.40
2497;DHT22;1259;48.306;14.374;2023-06-14T12:15:39;20.00;75.40
2497;DHT22;1259;48.306;14.374;2023-06-14T12:18:06;19.90;76.90
2497;DHT22;1259;48.306;14.374;2023-06-14T12:20:34;19.70;74.70
2497;DHT22;1259;48.306;14.374;2023-06-14T12:23:02;19.60;72.70
2497;DHT22;1259;48.306;14.374;2023-06-14T12:25:30;19.80;74.90
2497;DHT22;1259;48.306;14.374;2023-06-14T12:27:59;20.00;73.40
2497;DHT22;1259;48.306;14.374;2023-06-14T12:30:26;20.00;73.30
2497;DHT22;1259;48.306;14.374;2023-06-14T12:32:52;20.30;76.30
2497;DHT22;1259;48.306;14.374;2023-06-14T12:35:19;20.30;72.30
2497;DHT22;1259;48.306;14.374;2023-06-14T12:37:46;20.40;70.20
2497;DHT22;1259;48.306;14.374;2023-06-14T12:40:13;20.40;73.00
2497;DHT22;1259;48.306;14.374;2023-06-14T12:42:40;20.20;71.30
2497;DHT22;1259;48.306;14.374;2023-06-14T12:45:08;20.30;73.50
2497;DHT22;1259;48.306;14.374;2023-06-14T12:47:35;20.60;71.30
2497;DHT22;1259;48.306;14.374;2023-06-14T12:50:02;20.70;71.60
2497;DHT22;1259;48.306;14.374;2023-06-14T12:52:29;20.60;68.50
2497;DHT22;1259;48.306;14.374;2023-06-14T12:54:56;20.60;71.70
2497;DHT22;1259;48.306;14.374;2023-06-14T12:57:23;20.50;70.90
2497;DHT22;1259;48.306;14.374;2023-06-14T12:59:49;20.60;73.70
2497;DHT22;1259;48.306;14.374;2023-06-14T13:02:20;20.70;70.70
2497;DHT22;1259;48.306;14.374;2023-06-14T13:04:47;21.30;71.30
2497;DHT22;1259;48.306;14.374;2023-06-14T13:07:14;21.50;73.10
2497;DHT22;1259;48.306;14.374;2023-06-14T13:09:41;21.90;73.60
2497;DHT22;1259;48.306;14.374;2023-06-14T13:12:08;22.10;70.00
2497;DHT22;1259;48.306;14.374;2023-06-14T13:14:36;22.40;71.40
2497;DHT22;1259;48.306;14.374;2023-06-14T13:17:03;22.40;68.00
2497;DHT22;1259;48.306;14.374;2023-06-14T13:19:31;22.20;72.00
2497;DHT22;1259;48.306;14.374;2023-06-14T13:21:58;22.40;71.00
2497;DHT22;1259;48.306;14.374;2023-06-14T13:24:24;22.50;72.30
2497;DHT22;1259;48.306;14.374;2023-06-14T13:26:51;22.40;71.70
2497;DHT22;1259;48.306;14.374;2023-06-14T13:29:18;22.40;71.90
2497;DHT22;1259;48.306;14.374;2023-06-14T13:31:44;22.40;70.80
2497;DHT22;1259;48.306;14.374;2023-06-14T13:34:11;22.40;72.00
2497;DHT22;1259;48.306;14.374;2023-06-14T13:36:40;22.60;71.90
2497;DHT22;1259;48.306;14.374;2023-06-14T13:39:06;22.70;72.70
2497;DHT22;1259;48.306;14.374;2023-06-14T13:41:33;22.80;74.00
2497;DHT22;1259;48.306;14.374;2023-06-14T13:44:00;22.70;71.20
2497;DHT22;1259;48.306;14.374;2023-06-14T13:46:29;22.70;69.80
2497;DHT22;1259;48.306;14.374;2023-06-14T13:48:56;22.80;67.80
2497;DHT22;1259;48.306;14.374;2023-06-14T13:51:23;22.90;69.50
2497;DHT22;1259;48.306;14.374;2023-06-14T13:53:53;22.80;68.10
2497;DHT22;1259;48.306;14.374;2023-06-14T13:56:21;23.00;72.00
2497;DHT22;1259;48.306;14.374;2023-06-14T13:58:49;22.90;71.50
2497;DHT22;1259;48.306;14.374;2023-06-14T14:01:16;22.80;68.80
2497;DHT22;1259;48.306;14.374;2023-06-14T14:03:43;22.70;67.40
2497;DHT22;1259;48.306;14.374;2023-06-14T14:06:10;22.90;70.20
2497;DHT22;1259;48.306;14.374;2023-06-14T14:08:37;23.00;71.70
2497;DHT22;1259;48.306;14.374;2023-06-14T14:11:06;23.00;71.60
2497;DHT22;1259;48.306;14.374;2023-06-14T14:13:34;23.20;70.80
2497;DHT22;1259;48.306;14.374;2023-06-14T14:16:02;23.10;67.70
2497;DHT22;1259;48.306;14.374;2023-06-14T14:18:29;23.10;68.80
2497;DHT22;1259;48.306;14.374;2023-06-14T14:20:56;23.10;70.10
2497;DHT22;1259;48.306;14.374;2023-06-14T14:23:22;23.20;70.30
2497;DHT22;1259;48.306;14.374;2023-06-14T14:25:49;23.40;71.40
2497;DHT22;1259;48.306;14.374;2023-06-14T14:28:17;23.40;68.40
2497;DHT22;1259;48.306;14.374;2023-06-14T14:30:45;23.20;66.60
2497;DHT22;1259;48.306;14.374;2023-06-14T14:33:12;22.90;67.40
2497;DHT22;1259;48.306;14.374;2023-06-14T14:35:41;22.40;66.60
2497;DHT22;1259;48.306;14.374;2023-06-14T14:38:08;22.30;67.90
2497;DHT22;1259;48.306;14.374;2023-06-14T14:40:35;21.60;62.50
2497;DHT22;1259;48.306;14.374;2023-06-14T14:43:01;21.20;67.80
2497;DHT22;1259;48.306;14.374;2023-06-14T14:45:29;21.90;69.90
2497;DHT22;1259;48.306;14.374;2023-06-14T14:47:56;21.90;68.50
2497;DHT22;1259;48.306;14.374;2023-06-14T14:50:23;22.10;67.80
2497;DHT22;1259;48.306;14.374;2023-06-14T14:52:49;22.20;67.20
2497;DHT22;1259;48.306;14.374;2023-06-14T14:55:16;22.20;66.20
2497;DHT22;1259;48.306;14.374;2023-06-14T14:57:43;22.30;68.90
2497;DHT22;1259;48.306;14.374;2023-06-14T15:00:10;22.50;68.20
2497;DHT22;1259;48.306;14.374;2023-06-14T15:02:38;22.60;68.90
2497;DHT22;1259;48.306;14.374;2023-06-14T15:05:04;22.30;66.20
2497;DHT22;1259;48.306;14.374;2023-06-14T15:07:31;22.20;68.40
2497;DHT22;1259;48.306;14.374;2023-06-14T15:09:58;22.60;68.60
2497;DHT22;1259;48.306;14.374;2023-06-14T15:12:25;22.70;67.10
2497;DHT22;1259;48.306;14.374;2023-06-14T15:14:52;22.70;68.70
2497;DHT22;1259;48.306;14.374;2023-06-14T15:17:19;22.60;67.10
2497;DHT22;1259;48.306;14.374;2023-06-14T15:19:47;22.20;66.80
2497;DHT22;1259;48.306;14.374;2023-06-14T15:22:14;21.30;63.70
2497;DHT22;1259;48.306;14.374;2023-06-14T15:24:41;21.20;66.20
2497;DHT22;1259;48.306;14.374;2023-06-14T15:27:08;21.10;65.60
2497;DHT22;1259;48.306;14.374;2023-06-14T15:29:36;21.10;65.20
2497;DHT22;1259;48.306;14.374;2023-06-14T15:32:03;21.40;67.90
2497;DHT22;1259;48.306;14.374;2023-06-14T15:34:30;21.50;67.00
2497;DHT22;1259;48.306;14.374;2023-06-14T15:36:58;21.40;68.20
2497;DHT22;1259;48.306;14.374;2023-06-14T15:39:25;21.60;69.50
2497;DHT22;1259;48.306;14.374;2023-06-14T15:41:52;21.50;67.80
2497;DHT22;1259;48.306;14.374;2023-06-14T15:44:19;21.70;70.00
2497;DHT22;1259;48.306;14.374;2023-06-14T15:46:46;21.90;69.10
2497;DHT22;1259;48.306;14.374;2023-06-14T15:49:12;21.70;66.50